Sint-Truiden, Belgium
Current Conditions -  °F | °C
As of 5:25 PM on Sunday 21 Dec 2014 (Local Time) from EBDT Reporting Station
Overcast Overcast  
Wind Chill: 41°   Ceiling: 1100
Heat Index: 46°   Visibility: 2.5mi
Dew Point: 45°   Wind: 10mph
Humidity: 93%   Direction: 230°SW
Pressure: 30.3"   Gusts: NA
Location:  50.82°N, 5.19°E
Report Text: EBDT 211625Z AUTO 23009KT 4100 FEW009/// BKN011/// OVC016/// 08/07 Q1026 GRN
Loading
Personal Weather Stations






























Interactive Weather Map New forecast layout! Learn more

10-Day Weather Forecast

Advertisements
Track Severe Weather on mobile